createdAt,value
2023-09-26T00:01:56.575Z,37.55
2023-09-26T00:06:21.605Z,37.72
2023-09-26T00:08:25.798Z,36.97
2023-09-26T00:10:27.340Z,37.08
2023-09-26T00:12:29.591Z,36.42
2023-09-26T00:14:31.109Z,36.30
2023-09-26T00:16:32.665Z,36.40
2023-09-26T00:18:34.262Z,36.70
2023-09-26T00:20:40.628Z,36.83
2023-09-26T00:22:54.705Z,36.78
2023-09-26T00:25:13.151Z,37.38
2023-09-26T00:27:28.771Z,36.90
2023-09-26T00:31:48.063Z,37.15
2023-09-26T00:34:04.584Z,36.58
2023-09-26T00:36:19.626Z,36.38
2023-09-26T00:38:32.385Z,36.75
2023-09-26T00:40:45.390Z,36.75
2023-09-26T00:42:58.391Z,36.88
2023-09-26T00:45:13.681Z,37.10
2023-09-26T00:47:31.965Z,36.85
2023-09-26T00:49:41.436Z,37.50
2023-09-26T00:51:49.265Z,37.28
2023-09-26T00:53:56.451Z,36.75
2023-09-26T00:56:10.006Z,37.20
2023-09-26T00:58:20.364Z,36.95
2023-09-26T01:00:32.675Z,36.90
2023-09-26T01:02:40.010Z,36.60
2023-09-26T01:04:44.543Z,36.80
2023-09-26T01:06:48.991Z,36.53
2023-09-26T01:08:50.605Z,35.88
2023-09-26T01:10:52.140Z,35.72
2023-09-26T01:14:57.682Z,35.75
2023-09-26T01:17:02.157Z,35.83
2023-09-26T01:19:06.653Z,35.58
2023-09-26T01:21:09.117Z,35.67
2023-09-26T01:23:11.888Z,35.33
2023-09-26T01:25:14.679Z,35.25
2023-09-26T01:27:22.052Z,34.95
2023-09-26T01:29:26.555Z,34.72
2023-09-26T01:31:34.877Z,34.47
2023-09-26T01:33:39.504Z,34.35
2023-09-26T01:35:41.082Z,35.25
2023-09-26T01:37:42.596Z,35.08
2023-09-26T01:39:46.991Z,35.03
2023-09-26T01:42:07.000Z,35.15
2023-09-26T01:46:12.940Z,34.75
2023-09-26T01:48:18.074Z,34.63
2023-09-26T01:50:22.471Z,34.65
2023-09-26T01:52:23.958Z,35.00
2023-09-26T01:56:35.242Z,34.33
2023-09-26T01:58:42.716Z,34.17
2023-09-26T02:00:44.238Z,33.95
2023-09-26T02:02:50.255Z,33.72
2023-09-26T02:04:51.770Z,33.33
2023-09-26T02:06:53.238Z,33.55
2023-09-26T02:08:54.776Z,33.47
2023-09-26T02:10:56.391Z,34.08
2023-09-26T02:12:57.907Z,33.40
2023-09-26T02:15:04.826Z,33.28
2023-09-26T02:17:06.384Z,33.15
2023-09-26T02:19:10.762Z,32.97
2023-09-26T02:21:16.251Z,32.67
2023-09-26T02:23:17.733Z,32.92
2023-09-26T02:25:24.323Z,33.47
2023-09-26T02:27:28.726Z,33.15
2023-09-26T02:29:30.201Z,33.65
2023-09-26T02:31:31.790Z,33.00
2023-09-26T02:33:36.405Z,32.63
2023-09-26T02:35:38.268Z,32.30
2023-09-26T02:37:40.244Z,32.17
2023-09-26T02:39:44.402Z,31.52
2023-09-26T02:41:48.816Z,32.70
2023-09-26T02:43:56.794Z,32.55
2023-09-26T02:46:01.437Z,31.73
2023-09-26T02:48:06.042Z,31.73
2023-09-26T02:50:08.695Z,31.40
2023-09-26T02:52:28.676Z,31.63
2023-09-26T02:54:30.127Z,31.42
2023-09-26T02:56:31.594Z,31.67
2023-09-26T02:58:33.104Z,31.65
2023-09-26T03:00:34.669Z,31.73
2023-09-26T03:02:39.742Z,31.08
2023-09-26T03:04:47.531Z,30.35
2023-09-26T03:06:49.138Z,30.42
2023-09-26T03:08:50.636Z,29.45
2023-09-26T03:10:52.108Z,29.77
2023-09-26T03:12:53.621Z,29.23
2023-09-26T03:14:57.841Z,29.90
2023-09-26T03:16:59.512Z,30.20
2023-09-26T03:19:01.171Z,29.95
2023-09-26T03:21:21.789Z,29.80
2023-09-26T03:23:26.387Z,29.90
2023-09-26T03:25:32.754Z,28.42
2023-09-26T03:27:36.081Z,28.15
2023-09-26T03:29:58.247Z,28.63
2023-09-26T03:32:01.851Z,28.50
2023-09-26T03:34:24.030Z,27.92
2023-09-26T03:36:27.264Z,28.63
2023-09-26T03:38:30.820Z,27.88
2023-09-26T03:40:36.639Z,28.27
2023-09-26T03:42:40.653Z,28.67
2023-09-26T03:44:47.244Z,27.77
2023-09-26T03:46:50.292Z,26.83
2023-09-26T03:48:56.645Z,27.23
2023-09-26T03:51:10.857Z,26.25
2023-09-26T03:53:14.893Z,25.80
2023-09-26T03:55:25.551Z,25.52
2023-09-26T03:57:29.003Z,25.10
2023-09-26T03:59:35.655Z,25.67
2023-09-26T04:01:41.903Z,25.75
2023-09-26T04:03:46.918Z,26.17
2023-09-26T04:05:49.429Z,25.95
2023-09-26T04:07:56.621Z,25.38
2023-09-26T04:09:58.244Z,25.95
2023-09-26T04:11:59.826Z,25.50
2023-09-26T04:14:01.477Z,25.80
2023-09-26T04:16:06.627Z,25.60
2023-09-26T04:18:08.275Z,24.85
2023-09-26T04:20:31.385Z,25.73
2023-09-26T04:22:57.305Z,26.08
2023-09-26T04:25:01.452Z,25.95
2023-09-26T04:27:02.985Z,25.90
2023-09-26T04:29:07.625Z,25.50
2023-09-26T04:31:19.194Z,25.33
2023-09-26T04:35:24.929Z,24.25
2023-09-26T04:37:45.507Z,23.63
2023-09-26T04:39:47.001Z,23.80
2023-09-26T04:41:51.179Z,24.58
2023-09-26T04:43:52.690Z,24.42
2023-09-26T04:45:54.329Z,23.55
2023-09-26T04:48:15.084Z,22.35
2023-09-26T04:50:16.531Z,22.05
2023-09-26T04:52:18.118Z,21.65
2023-09-26T04:54:22.341Z,20.23
2023-09-26T04:56:23.841Z,19.98
2023-09-26T04:58:30.315Z,19.90
2023-09-26T05:00:32.301Z,20.23
2023-09-26T05:02:33.803Z,20.77
2023-09-26T05:04:38.033Z,21.15
2023-09-26T05:06:42.408Z,20.60
2023-09-26T05:08:46.880Z,19.95
2023-09-26T05:10:50.733Z,19.08
2023-09-26T05:12:52.231Z,18.33
2023-09-26T05:14:53.674Z,18.13
2023-09-26T05:18:56.526Z,44.17
2023-09-26T05:20:58.352Z,32.78
2023-09-26T05:23:04.243Z,31.45
2023-09-26T05:25:06.096Z,30.50
2023-09-26T05:27:07.748Z,30.00
2023-09-26T05:29:09.194Z,28.40
2023-09-26T05:31:30.102Z,27.27
2023-09-26T05:33:31.866Z,27.27
2023-09-26T05:35:33.349Z,26.83
2023-09-26T05:37:35.643Z,25.08
2023-09-26T05:39:37.267Z,25.77
2023-09-26T05:41:39.478Z,24.98
2023-09-26T05:43:41.020Z,24.63
2023-09-26T05:45:42.542Z,24.98
2023-09-26T05:47:44.408Z,24.73
2023-09-26T05:50:05.645Z,23.60
2023-09-26T05:52:07.187Z,23.95
2023-09-26T05:56:28.321Z,23.98
2023-09-26T05:58:32.618Z,24.02
2023-09-26T06:00:35.909Z,24.10
2023-09-26T06:02:40.686Z,23.95
2023-09-26T06:04:43.259Z,22.77
2023-09-26T06:06:47.578Z,22.90
2023-09-26T06:08:53.624Z,23.63
2023-09-26T06:10:56.339Z,23.05
2023-09-26T06:12:57.889Z,22.42
2023-09-26T06:14:59.575Z,19.70
2023-09-26T06:17:05.074Z,18.60
2023-09-26T06:19:06.768Z,17.50
2023-09-26T06:23:19.581Z,33.10
2023-09-26T06:25:24.023Z,23.65
2023-09-26T06:27:35.363Z,19.20
2023-09-26T06:29:43.206Z,19.30
2023-09-26T06:36:13.120Z,32.00
2023-09-26T06:38:14.927Z,19.95
2023-09-26T06:42:39.770Z,30.90
2023-09-26T06:46:49.432Z,29.92
2023-09-26T06:50:55.521Z,31.00
2023-09-26T06:54:58.664Z,30.30
2023-09-26T06:59:07.579Z,29.85
2023-09-26T07:03:13.405Z,30.65
2023-09-26T07:11:25.925Z,34.33
2023-09-26T07:15:58.724Z,35.60
2023-09-26T07:18:00.505Z,24.42
2023-09-26T07:22:12.355Z,34.25
2023-09-26T07:26:18.682Z,36.35
2023-09-26T07:30:27.328Z,37.97
2023-09-26T07:34:33.314Z,34.40
2023-09-26T07:57:06.167Z,31.30
2023-09-26T09:26:15.390Z,33.92
2023-09-26T09:28:24.101Z,30.92
2023-09-26T09:30:29.559Z,29.10
2023-09-26T09:32:32.557Z,29.88
2023-09-26T09:34:38.206Z,29.60
2023-09-26T09:36:47.866Z,30.95
2023-09-26T09:39:17.365Z,30.70
2023-09-26T09:41:23.934Z,31.20
2023-09-26T09:43:34.136Z,31.73
2023-09-26T09:45:41.224Z,31.02
2023-09-26T09:47:50.136Z,31.63
2023-09-26T09:49:56.341Z,31.40
2023-09-26T09:52:16.946Z,31.60
2023-09-26T09:54:25.965Z,31.27
2023-09-26T09:56:35.459Z,31.50
2023-09-26T09:58:46.466Z,32.28
2023-09-26T10:00:53.418Z,31.67
2023-09-26T10:03:06.370Z,32.25
2023-09-26T10:05:14.398Z,31.70
2023-09-26T10:07:19.624Z,31.60
2023-09-26T10:09:30.294Z,31.23
2023-09-26T10:11:37.314Z,31.35
2023-09-26T10:13:42.924Z,31.38
2023-09-26T10:16:07.576Z,30.42
2023-09-26T10:18:13.459Z,31.88
2023-09-26T10:20:39.989Z,32.25
2023-09-26T10:22:45.504Z,31.50
2023-09-26T10:24:54.181Z,32.67
2023-09-26T10:27:01.386Z,33.95
2023-09-26T10:29:13.792Z,36.10
2023-09-26T10:31:16.337Z,36.88
2023-09-26T10:35:45.774Z,37.38
2023-09-26T10:37:50.946Z,37.42
2023-09-26T10:39:55.951Z,37.95
2023-09-26T10:42:19.645Z,37.35
2023-09-26T10:44:22.317Z,36.53
2023-09-26T10:46:26.934Z,36.60
2023-09-26T10:48:28.504Z,36.50
2023-09-26T10:50:33.834Z,35.28
2023-09-26T10:52:35.843Z,33.60
2023-09-26T10:54:42.246Z,34.88
2023-09-26T10:56:48.742Z,35.33
2023-09-26T10:58:53.543Z,36.35
2023-09-26T11:00:59.108Z,35.70
2023-09-26T11:05:29.229Z,34.80
2023-09-26T11:07:34.095Z,34.35
2023-09-26T11:09:40.803Z,34.50
2023-09-26T11:11:43.284Z,34.75
2023-09-26T11:13:47.530Z,35.80
2023-09-26T11:15:52.171Z,34.85
2023-09-26T11:17:54.360Z,33.65
2023-09-26T11:20:14.616Z,32.00
2023-09-26T11:22:53.367Z,32.30
2023-09-26T11:25:04.677Z,32.33
2023-09-26T11:27:25.023Z,32.60
2023-09-26T11:29:26.844Z,29.77
2023-09-26T11:33:34.065Z,41.63
2023-09-26T11:35:35.589Z,34.05
2023-09-26T11:37:39.986Z,33.28
2023-09-26T11:40:00.289Z,29.42
2023-09-26T11:44:12.998Z,42.63
2023-09-26T11:48:15.820Z,42.47
2023-09-26T11:50:17.396Z,32.63
2023-09-26T11:52:21.762Z,31.45
2023-09-26T11:56:30.728Z,41.80
2023-09-26T11:58:38.233Z,35.75
2023-09-26T12:00:39.841Z,32.85
2023-09-26T12:02:45.116Z,30.27
2023-09-26T12:04:49.812Z,27.50
2023-09-26T12:06:54.049Z,31.27
2023-09-26T12:08:58.699Z,29.23
2023-09-26T12:11:00.216Z,31.13
2023-09-26T12:13:03.598Z,30.10
2023-09-26T12:15:20.521Z,27.40
2023-09-26T12:17:25.005Z,24.70
2023-09-26T12:19:26.731Z,27.80
2023-09-26T12:21:31.425Z,23.70
2023-09-26T12:25:53.492Z,40.40
2023-09-26T12:27:58.183Z,25.40
2023-09-26T12:29:59.766Z,28.73
2023-09-26T12:34:09.055Z,37.85
2023-09-26T12:36:11.361Z,28.25
2023-09-26T12:38:12.890Z,23.80
2023-09-26T12:42:26.058Z,38.05
2023-09-26T12:44:30.386Z,25.50
2023-09-26T12:46:38.898Z,27.20
2023-09-26T12:48:44.523Z,26.90
2023-09-26T12:53:11.302Z,38.53
2023-09-26T13:01:31.693Z,38.15
2023-09-26T13:03:34.476Z,30.27
2023-09-26T13:09:41.756Z,37.20
2023-09-26T13:13:46.681Z,36.83
2023-09-26T13:15:49.704Z,29.17
2023-09-26T13:20:15.051Z,36.22
2023-09-26T13:24:23.805Z,36.47
2023-09-26T13:26:29.444Z,26.70
2023-09-26T13:30:37.378Z,36.28
2023-09-26T13:35:05.707Z,36.00
2023-09-26T13:39:14.556Z,34.70
2023-09-26T13:43:21.411Z,34.78
2023-09-26T13:47:27.262Z,34.40
2023-09-26T13:51:56.583Z,35.28
2023-09-26T13:56:18.176Z,34.78
2023-09-26T14:00:42.165Z,22.85
2023-09-26T14:04:58.475Z,33.83
2023-09-26T14:09:14.522Z,33.58
2023-09-26T14:13:17.406Z,32.85
2023-09-26T14:17:25.895Z,32.63
2023-09-26T14:21:34.829Z,32.88
2023-09-26T14:27:48.387Z,33.00
2023-09-26T14:32:10.251Z,33.65
2023-09-26T14:36:16.142Z,33.08
2023-09-26T14:46:53.294Z,32.80
2023-09-26T14:59:23.460Z,30.60
2023-09-26T15:13:55.059Z,32.13
